sensor_id;sensor_type;location;lat;lon;timestamp;P1;durP1;ratioP1;P2;durP2;ratioP2
16634;SDS011;8431;52.458;9.998;2022-08-19T00:01:33;8.40;;;7.45;;
16634;SDS011;8431;52.458;9.998;2022-08-19T00:04:04;9.23;;;6.70;;
16634;SDS011;8431;52.458;9.998;2022-08-19T00:06:33;9.40;;;7.50;;
16634;SDS011;8431;52.458;9.998;2022-08-19T00:09:02;7.95;;;7.10;;
16634;SDS011;8431;52.458;9.998;2022-08-19T00:11:30;8.25;;;6.90;;
16634;SDS011;8431;52.458;9.998;2022-08-19T00:13:58;8.40;;;7.47;;
16634;SDS011;8431;52.458;9.998;2022-08-19T00:16:25;8.48;;;7.13;;
16634;SDS011;8431;52.458;9.998;2022-08-19T00:18:53;8.38;;;6.85;;
16634;SDS011;8431;52.458;9.998;2022-08-19T00:21:22;8.80;;;7.57;;
16634;SDS011;8431;52.458;9.998;2022-08-19T00:23:50;7.95;;;7.15;;
16634;SDS011;8431;52.458;9.998;2022-08-19T00:26:18;8.55;;;7.55;;
16634;SDS011;8431;52.458;9.998;2022-08-19T00:28:45;9.57;;;7.50;;
16634;SDS011;8431;52.458;9.998;2022-08-19T00:31:12;10.98;;;7.93;;
16634;SDS011;8431;52.458;9.998;2022-08-19T00:33:40;8.32;;;7.53;;
16634;SDS011;8431;52.458;9.998;2022-08-19T00:36:07;10.20;;;7.30;;
16634;SDS011;8431;52.458;9.998;2022-08-19T00:38:37;8.48;;;7.60;;
16634;SDS011;8431;52.458;9.998;2022-08-19T00:41:06;8.85;;;7.63;;
16634;SDS011;8431;52.458;9.998;2022-08-19T00:43:33;9.85;;;7.75;;
16634;SDS011;8431;52.458;9.998;2022-08-19T00:46:01;10.13;;;7.78;;
16634;SDS011;8431;52.458;9.998;2022-08-19T00:48:30;11.25;;;7.80;;
16634;SDS011;8431;52.458;9.998;2022-08-19T00:50:58;9.02;;;7.72;;
16634;SDS011;8431;52.458;9.998;2022-08-19T00:53:27;9.85;;;8.18;;
16634;SDS011;8431;52.458;9.998;2022-08-19T00:55:58;8.45;;;7.68;;
16634;SDS011;8431;52.458;9.998;2022-08-19T00:58:28;11.30;;;8.00;;
16634;SDS011;8431;52.458;9.998;2022-08-19T01:00:58;9.00;;;8.05;;
16634;SDS011;8431;52.458;9.998;2022-08-19T01:03:25;8.43;;;7.60;;
16634;SDS011;8431;52.458;9.998;2022-08-19T01:05:53;10.15;;;8.10;;
16634;SDS011;8431;52.458;9.998;2022-08-19T01:08:21;9.50;;;8.48;;
16634;SDS011;8431;52.458;9.998;2022-08-19T01:10:51;9.40;;;8.50;;
16634;SDS011;8431;52.458;9.998;2022-08-19T01:13:22;10.05;;;9.00;;
16634;SDS011;8431;52.458;9.998;2022-08-19T01:15:52;10.20;;;8.40;;
16634;SDS011;8431;52.458;9.998;2022-08-19T01:18:22;10.77;;;9.68;;
16634;SDS011;8431;52.458;9.998;2022-08-19T01:20:51;11.30;;;9.23;;
16634;SDS011;8431;52.458;9.998;2022-08-19T01:23:21;12.85;;;10.55;;
16634;SDS011;8431;52.458;9.998;2022-08-19T01:26:08;10.93;;;9.75;;
16634;SDS011;8431;52.458;9.998;2022-08-19T01:28:37;12.00;;;8.93;;
16634;SDS011;8431;52.458;9.998;2022-08-19T01:31:04;10.95;;;9.48;;
16634;SDS011;8431;52.458;9.998;2022-08-19T01:33:32;10.10;;;9.10;;
16634;SDS011;8431;52.458;9.998;2022-08-19T01:36:03;10.07;;;8.93;;
16634;SDS011;8431;52.458;9.998;2022-08-19T01:38:35;10.48;;;9.57;;
16634;SDS011;8431;52.458;9.998;2022-08-19T01:41:04;9.77;;;8.82;;
16634;SDS011;8431;52.458;9.998;2022-08-19T01:43:32;11.95;;;8.77;;
16634;SDS011;8431;52.458;9.998;2022-08-19T01:45:59;9.80;;;8.70;;
16634;SDS011;8431;52.458;9.998;2022-08-19T01:48:32;11.18;;;9.15;;
16634;SDS011;8431;52.458;9.998;2022-08-19T01:51:01;10.10;;;9.20;;
16634;SDS011;8431;52.458;9.998;2022-08-19T01:53:29;12.68;;;9.10;;
16634;SDS011;8431;52.458;9.998;2022-08-19T01:55:57;10.35;;;9.32;;
16634;SDS011;8431;52.458;9.998;2022-08-19T01:58:26;9.60;;;8.60;;
16634;SDS011;8431;52.458;9.998;2022-08-19T02:00:56;10.13;;;8.95;;
16634;SDS011;8431;52.458;9.998;2022-08-19T02:03:24;10.25;;;9.25;;
16634;SDS011;8431;52.458;9.998;2022-08-19T02:05:55;11.65;;;7.90;;
16634;SDS011;8431;52.458;9.998;2022-08-19T02:08:23;8.85;;;8.02;;
16634;SDS011;8431;52.458;9.998;2022-08-19T02:10:50;9.43;;;8.63;;
16634;SDS011;8431;52.458;9.998;2022-08-19T02:13:19;9.52;;;8.57;;
16634;SDS011;8431;52.458;9.998;2022-08-19T02:15:46;9.38;;;8.43;;
16634;SDS011;8431;52.458;9.998;2022-08-19T02:18:13;9.95;;;8.80;;
16634;SDS011;8431;52.458;9.998;2022-08-19T02:20:43;10.82;;;8.68;;
16634;SDS011;8431;52.458;9.998;2022-08-19T02:23:12;8.45;;;7.85;;
16634;SDS011;8431;52.458;9.998;2022-08-19T02:25:39;9.05;;;8.25;;
16634;SDS011;8431;52.458;9.998;2022-08-19T02:28:07;9.57;;;8.45;;
16634;SDS011;8431;52.458;9.998;2022-08-19T02:30:36;9.20;;;8.30;;
16634;SDS011;8431;52.458;9.998;2022-08-19T02:33:03;9.55;;;8.35;;
16634;SDS011;8431;52.458;9.998;2022-08-19T02:35:30;11.07;;;8.48;;
16634;SDS011;8431;52.458;9.998;2022-08-19T02:37:57;9.38;;;8.48;;
16634;SDS011;8431;52.458;9.998;2022-08-19T02:40:47;9.65;;;8.65;;
16634;SDS011;8431;52.458;9.998;2022-08-19T02:43:16;9.13;;;8.30;;
16634;SDS011;8431;52.458;9.998;2022-08-19T02:45:47;10.00;;;8.20;;
16634;SDS011;8431;52.458;9.998;2022-08-19T02:48:15;9.43;;;8.43;;
16634;SDS011;8431;52.458;9.998;2022-08-19T02:50:43;10.35;;;9.23;;
16634;SDS011;8431;52.458;9.998;2022-08-19T02:53:14;10.43;;;8.73;;
16634;SDS011;8431;52.458;9.998;2022-08-19T02:55:44;9.65;;;8.70;;
16634;SDS011;8431;52.458;9.998;2022-08-19T02:58:12;10.02;;;9.10;;
16634;SDS011;8431;52.458;9.998;2022-08-19T03:00:41;11.75;;;10.52;;
16634;SDS011;8431;52.458;9.998;2022-08-19T03:03:11;10.88;;;9.55;;
16634;SDS011;8431;52.458;9.998;2022-08-19T03:05:38;9.77;;;8.88;;
16634;SDS011;8431;52.458;9.998;2022-08-19T03:08:06;10.25;;;8.77;;
16634;SDS011;8431;52.458;9.998;2022-08-19T03:10:33;9.75;;;8.95;;
16634;SDS011;8431;52.458;9.998;2022-08-19T03:13:09;11.88;;;9.82;;
16634;SDS011;8431;52.458;9.998;2022-08-19T03:15:38;16.30;;;9.75;;
16634;SDS011;8431;52.458;9.998;2022-08-19T03:18:06;12.05;;;9.95;;
16634;SDS011;8431;52.458;9.998;2022-08-19T03:20:40;13.27;;;9.65;;
16634;SDS011;8431;52.458;9.998;2022-08-19T03:23:08;11.43;;;10.23;;
16634;SDS011;8431;52.458;9.998;2022-08-19T03:25:39;11.07;;;9.98;;
16634;SDS011;8431;52.458;9.998;2022-08-19T03:28:08;11.98;;;10.75;;
16634;SDS011;8431;52.458;9.998;2022-08-19T03:30:35;11.77;;;10.63;;
16634;SDS011;8431;52.458;9.998;2022-08-19T03:33:02;12.25;;;10.05;;
16634;SDS011;8431;52.458;9.998;2022-08-19T03:35:29;10.80;;;9.70;;
16634;SDS011;8431;52.458;9.998;2022-08-19T03:37:59;11.93;;;10.65;;
16634;SDS011;8431;52.458;9.998;2022-08-19T03:40:26;11.98;;;10.82;;
16634;SDS011;8431;52.458;9.998;2022-08-19T03:42:55;12.50;;;11.20;;
16634;SDS011;8431;52.458;9.998;2022-08-19T03:45:22;12.40;;;11.30;;
16634;SDS011;8431;52.458;9.998;2022-08-19T03:47:49;16.60;;;12.85;;
16634;SDS011;8431;52.458;9.998;2022-08-19T03:50:16;13.15;;;11.75;;
16634;SDS011;8431;52.458;9.998;2022-08-19T03:52:47;14.18;;;11.45;;
16634;SDS011;8431;52.458;9.998;2022-08-19T03:55:18;15.10;;;12.32;;
16634;SDS011;8431;52.458;9.998;2022-08-19T03:57:45;13.45;;;11.98;;
16634;SDS011;8431;52.458;9.998;2022-08-19T04:00:14;13.25;;;11.90;;
16634;SDS011;8431;52.458;9.998;2022-08-19T04:02:41;14.50;;;11.30;;
16634;SDS011;8431;52.458;9.998;2022-08-19T04:05:09;13.18;;;11.88;;
16634;SDS011;8431;52.458;9.998;2022-08-19T04:07:36;13.55;;;12.13;;
16634;SDS011;8431;52.458;9.998;2022-08-19T04:10:03;12.52;;;11.27;;
16634;SDS011;8431;52.458;9.998;2022-08-19T04:12:32;13.52;;;12.00;;
16634;SDS011;8431;52.458;9.998;2022-08-19T04:14:59;16.58;;;11.45;;
16634;SDS011;8431;52.458;9.998;2022-08-19T04:17:26;12.07;;;10.80;;
16634;SDS011;8431;52.458;9.998;2022-08-19T04:19:53;11.65;;;10.55;;
16634;SDS011;8431;52.458;9.998;2022-08-19T04:22:20;14.30;;;11.20;;
16634;SDS011;8431;52.458;9.998;2022-08-19T04:24:47;15.75;;;11.50;;
16634;SDS011;8431;52.458;9.998;2022-08-19T04:27:14;13.18;;;11.15;;
16634;SDS011;8431;52.458;9.998;2022-08-19T04:29:43;13.23;;;11.55;;
16634;SDS011;8431;52.458;9.998;2022-08-19T04:32:10;13.02;;;11.10;;
16634;SDS011;8431;52.458;9.998;2022-08-19T04:34:40;12.15;;;10.63;;
16634;SDS011;8431;52.458;9.998;2022-08-19T04:37:08;14.63;;;10.65;;
16634;SDS011;8431;52.458;9.998;2022-08-19T04:39:37;10.93;;;9.90;;
16634;SDS011;8431;52.458;9.998;2022-08-19T04:42:18;11.80;;;10.45;;
16634;SDS011;8431;52.458;9.998;2022-08-19T04:45:04;11.73;;;10.60;;
16634;SDS011;8431;52.458;9.998;2022-08-19T04:47:32;13.07;;;10.10;;
16634;SDS011;8431;52.458;9.998;2022-08-19T04:49:59;13.82;;;9.75;;
16634;SDS011;8431;52.458;9.998;2022-08-19T04:52:26;11.85;;;9.85;;
16634;SDS011;8431;52.458;9.998;2022-08-19T04:54:53;12.75;;;10.35;;
16634;SDS011;8431;52.458;9.998;2022-08-19T04:57:21;11.82;;;10.07;;
16634;SDS011;8431;52.458;9.998;2022-08-19T04:59:48;11.35;;;9.90;;
16634;SDS011;8431;52.458;9.998;2022-08-19T05:02:16;11.63;;;10.25;;
16634;SDS011;8431;52.458;9.998;2022-08-19T05:04:43;12.40;;;9.30;;
16634;SDS011;8431;52.458;9.998;2022-08-19T05:07:10;10.25;;;9.25;;
16634;SDS011;8431;52.458;9.998;2022-08-19T05:09:37;11.18;;;9.60;;
16634;SDS011;8431;52.458;9.998;2022-08-19T05:12:05;11.70;;;8.88;;
16634;SDS011;8431;52.458;9.998;2022-08-19T05:14:32;9.30;;;8.10;;
16634;SDS011;8431;52.458;9.998;2022-08-19T05:17:01;10.73;;;9.18;;
16634;SDS011;8431;52.458;9.998;2022-08-19T05:19:30;8.68;;;7.97;;
16634;SDS011;8431;52.458;9.998;2022-08-19T05:22:14;8.82;;;7.95;;
16634;SDS011;8431;52.458;9.998;2022-08-19T05:25:00;8.98;;;8.07;;
16634;SDS011;8431;52.458;9.998;2022-08-19T05:27:30;8.98;;;8.07;;
16634;SDS011;8431;52.458;9.998;2022-08-19T05:29:57;9.57;;;8.57;;
16634;SDS011;8431;52.458;9.998;2022-08-19T05:32:24;12.13;;;8.95;;
16634;SDS011;8431;52.458;9.998;2022-08-19T05:34:53;10.27;;;8.70;;
16634;SDS011;8431;52.458;9.998;2022-08-19T05:37:20;10.38;;;8.93;;
16634;SDS011;8431;52.458;9.998;2022-08-19T05:39:47;9.95;;;9.05;;
16634;SDS011;8431;52.458;9.998;2022-08-19T05:42:15;10.30;;;8.75;;
16634;SDS011;8431;52.458;9.998;2022-08-19T05:44:42;10.80;;;9.40;;
16634;SDS011;8431;52.458;9.998;2022-08-19T05:47:11;10.38;;;9.38;;
16634;SDS011;8431;52.458;9.998;2022-08-19T05:49:40;12.05;;;9.48;;
16634;SDS011;8431;52.458;9.998;2022-08-19T05:52:09;11.75;;;10.02;;
16634;SDS011;8431;52.458;9.998;2022-08-19T05:54:38;10.25;;;9.30;;
16634;SDS011;8431;52.458;9.998;2022-08-19T05:57:07;11.40;;;9.80;;
16634;SDS011;8431;52.458;9.998;2022-08-19T05:59:35;17.20;;;10.23;;
16634;SDS011;8431;52.458;9.998;2022-08-19T06:02:02;12.23;;;10.43;;
16634;SDS011;8431;52.458;9.998;2022-08-19T06:04:31;12.52;;;9.38;;
16634;SDS011;8431;52.458;9.998;2022-08-19T06:06:58;10.45;;;9.40;;
16634;SDS011;8431;52.458;9.998;2022-08-19T06:09:28;9.30;;;8.52;;
16634;SDS011;8431;52.458;9.998;2022-08-19T06:11:56;10.05;;;8.68;;
16634;SDS011;8431;52.458;9.998;2022-08-19T06:14:25;12.10;;;8.68;;
16634;SDS011;8431;52.458;9.998;2022-08-19T06:16:54;9.25;;;8.18;;
16634;SDS011;8431;52.458;9.998;2022-08-19T06:19:21;9.50;;;8.55;;
16634;SDS011;8431;52.458;9.998;2022-08-19T06:21:50;8.85;;;8.05;;
16634;SDS011;8431;52.458;9.998;2022-08-19T06:24:19;9.95;;;8.98;;
16634;SDS011;8431;52.458;9.998;2022-08-19T06:26:51;10.25;;;8.68;;
16634;SDS011;8431;52.458;9.998;2022-08-19T06:29:20;10.18;;;9.00;;
16634;SDS011;8431;52.458;9.998;2022-08-19T06:31:50;10.82;;;9.60;;
16634;SDS011;8431;52.458;9.998;2022-08-19T06:34:19;9.52;;;8.63;;
16634;SDS011;8431;52.458;9.998;2022-08-19T06:36:48;11.20;;;9.00;;
16634;SDS011;8431;52.458;9.998;2022-08-19T06:39:17;9.77;;;8.77;;
16634;SDS011;8431;52.458;9.998;2022-08-19T06:41:46;9.00;;;8.07;;
16634;SDS011;8431;52.458;9.998;2022-08-19T06:44:16;8.60;;;7.80;;
16634;SDS011;8431;52.458;9.998;2022-08-19T06:46:43;9.32;;;8.32;;
16634;SDS011;8431;52.458;9.998;2022-08-19T06:49:10;10.13;;;8.40;;
16634;SDS011;8431;52.458;9.998;2022-08-19T06:51:39;10.30;;;8.80;;
16634;SDS011;8431;52.458;9.998;2022-08-19T06:54:06;9.52;;;8.32;;
16634;SDS011;8431;52.458;9.998;2022-08-19T06:56:33;9.48;;;8.15;;
16634;SDS011;8431;52.458;9.998;2022-08-19T06:59:01;9.48;;;8.50;;
16634;SDS011;8431;52.458;9.998;2022-08-19T07:01:31;8.23;;;7.47;;
16634;SDS011;8431;52.458;9.998;2022-08-19T07:04:03;9.00;;;8.00;;
16634;SDS011;8431;52.458;9.998;2022-08-19T07:06:31;8.30;;;7.15;;
16634;SDS011;8431;52.458;9.998;2022-08-19T07:08:58;10.93;;;7.75;;
16634;SDS011;8431;52.458;9.998;2022-08-19T07:11:25;8.63;;;6.90;;
16634;SDS011;8431;52.458;9.998;2022-08-19T07:13:52;7.60;;;6.85;;
16634;SDS011;8431;52.458;9.998;2022-08-19T07:16:20;7.65;;;7.05;;
16634;SDS011;8431;52.458;9.998;2022-08-19T07:18:50;7.68;;;6.78;;
16634;SDS011;8431;52.458;9.998;2022-08-19T07:21:19;8.63;;;6.40;;
16634;SDS011;8431;52.458;9.998;2022-08-19T07:23:49;6.68;;;6.15;;
16634;SDS011;8431;52.458;9.998;2022-08-19T07:26:17;7.38;;;6.68;;
16634;SDS011;8431;52.458;9.998;2022-08-19T07:28:48;9.57;;;7.70;;
16634;SDS011;8431;52.458;9.998;2022-08-19T07:31:18;9.13;;;6.88;;
16634;SDS011;8431;52.458;9.998;2022-08-19T07:33:47;7.07;;;6.45;;
16634;SDS011;8431;52.458;9.998;2022-08-19T07:36:18;7.85;;;6.93;;
16634;SDS011;8431;52.458;9.998;2022-08-19T07:38:48;6.63;;;6.03;;
16634;SDS011;8431;52.458;9.998;2022-08-19T07:41:17;8.88;;;7.55;;
16634;SDS011;8431;52.458;9.998;2022-08-19T07:43:45;7.30;;;6.68;;
16634;SDS011;8431;52.458;9.998;2022-08-19T07:46:13;7.68;;;6.97;;
16634;SDS011;8431;52.458;9.998;2022-08-19T07:48:40;8.13;;;7.40;;
16634;SDS011;8431;52.458;9.998;2022-08-19T07:51:12;7.30;;;6.70;;
16634;SDS011;8431;52.458;9.998;2022-08-19T07:53:41;7.63;;;7.03;;
16634;SDS011;8431;52.458;9.998;2022-08-19T07:56:10;7.35;;;6.50;;
16634;SDS011;8431;52.458;9.998;2022-08-19T07:58:38;10.15;;;6.10;;
16634;SDS011;8431;52.458;9.998;2022-08-19T08:01:08;7.32;;;6.68;;
16634;SDS011;8431;52.458;9.998;2022-08-19T08:03:37;7.43;;;6.75;;
16634;SDS011;8431;52.458;9.998;2022-08-19T08:06:24;7.25;;;6.57;;
16634;SDS011;8431;52.458;9.998;2022-08-19T08:09:09;7.10;;;6.47;;
16634;SDS011;8431;52.458;9.998;2022-08-19T08:11:41;6.75;;;6.15;;
16634;SDS011;8431;52.458;9.998;2022-08-19T08:14:15;6.97;;;6.38;;
16634;SDS011;8431;52.458;9.998;2022-08-19T08:16:44;6.97;;;6.35;;
16634;SDS011;8431;52.458;9.998;2022-08-19T08:19:12;7.45;;;6.93;;
16634;SDS011;8431;52.458;9.998;2022-08-19T08:21:42;5.75;;;5.30;;
16634;SDS011;8431;52.458;9.998;2022-08-19T08:24:11;6.53;;;5.93;;
16634;SDS011;8431;52.458;9.998;2022-08-19T08:26:38;6.25;;;5.70;;
16634;SDS011;8431;52.458;9.998;2022-08-19T08:29:06;6.25;;;5.65;;
16634;SDS011;8431;52.458;9.998;2022-08-19T08:31:37;6.25;;;5.65;;
16634;SDS011;8431;52.458;9.998;2022-08-19T08:34:05;6.78;;;6.07;;
16634;SDS011;8431;52.458;9.998;2022-08-19T08:36:32;6.68;;;5.90;;
16634;SDS011;8431;52.458;9.998;2022-08-19T08:39:07;6.72;;;5.97;;
16634;SDS011;8431;52.458;9.998;2022-08-19T08:41:35;7.10;;;5.40;;
16634;SDS011;8431;52.458;9.998;2022-08-19T08:44:11;5.85;;;5.35;;
16634;SDS011;8431;52.458;9.998;2022-08-19T08:46:44;5.95;;;5.35;;
16634;SDS011;8431;52.458;9.998;2022-08-19T08:49:19;8.90;;;4.60;;
16634;SDS011;8431;52.458;9.998;2022-08-19T08:51:54;5.72;;;5.20;;
16634;SDS011;8431;52.458;9.998;2022-08-19T08:54:30;5.78;;;5.38;;
16634;SDS011;8431;52.458;9.998;2022-08-19T08:57:00;5.65;;;5.15;;
16634;SDS011;8431;52.458;9.998;2022-08-19T08:59:34;6.05;;;5.65;;
16634;SDS011;8431;52.458;9.998;2022-08-19T09:02:03;6.38;;;5.70;;
16634;SDS011;8431;52.458;9.998;2022-08-19T09:04:30;5.25;;;4.85;;
16634;SDS011;8431;52.458;9.998;2022-08-19T09:06:59;6.72;;;5.38;;
16634;SDS011;8431;52.458;9.998;2022-08-19T09:09:38;5.35;;;4.95;;
16634;SDS011;8431;52.458;9.998;2022-08-19T09:12:10;5.28;;;4.88;;
16634;SDS011;8431;52.458;9.998;2022-08-19T09:14:45;6.63;;;5.60;;
16634;SDS011;8431;52.458;9.998;2022-08-19T09:17:16;6.10;;;5.65;;
16634;SDS011;8431;52.458;9.998;2022-08-19T09:19:50;7.03;;;6.43;;
16634;SDS011;8431;52.458;9.998;2022-08-19T09:22:19;7.40;;;6.03;;
16634;SDS011;8431;52.458;9.998;2022-08-19T09:24:49;5.93;;;5.28;;
16634;SDS011;8431;52.458;9.998;2022-08-19T09:27:17;5.05;;;4.65;;
16634;SDS011;8431;52.458;9.998;2022-08-19T09:29:45;5.22;;;4.82;;
16634;SDS011;8431;52.458;9.998;2022-08-19T09:32:13;6.43;;;6.03;;
16634;SDS011;8431;52.458;9.998;2022-08-19T09:34:40;6.72;;;6.20;;
16634;SDS011;8431;52.458;9.998;2022-08-19T09:37:08;5.88;;;5.47;;
16634;SDS011;8431;52.458;9.998;2022-08-19T09:39:35;6.00;;;5.50;;
16634;SDS011;8431;52.458;9.998;2022-08-19T09:42:04;6.63;;;6.10;;
16634;SDS011;8431;52.458;9.998;2022-08-19T09:44:36;5.68;;;5.13;;
16634;SDS011;8431;52.458;9.998;2022-08-19T09:47:03;5.32;;;4.93;;
16634;SDS011;8431;52.458;9.998;2022-08-19T09:49:32;6.13;;;5.65;;
16634;SDS011;8431;52.458;9.998;2022-08-19T09:51:59;6.45;;;5.85;;
16634;SDS011;8431;52.458;9.998;2022-08-19T09:54:26;5.85;;;5.35;;
16634;SDS011;8431;52.458;9.998;2022-08-19T09:56:54;6.07;;;5.57;;
16634;SDS011;8431;52.458;9.998;2022-08-19T09:59:26;5.57;;;5.05;;
16634;SDS011;8431;52.458;9.998;2022-08-19T10:01:54;5.38;;;4.97;;
16634;SDS011;8431;52.458;9.998;2022-08-19T10:04:22;6.85;;;5.97;;
16634;SDS011;8431;52.458;9.998;2022-08-19T10:07:09;5.25;;;4.85;;
16634;SDS011;8431;52.458;9.998;2022-08-19T10:09:36;5.88;;;5.47;;
16634;SDS011;8431;52.458;9.998;2022-08-19T10:12:05;5.93;;;5.43;;
16634;SDS011;8431;52.458;9.998;2022-08-19T10:14:34;6.07;;;5.47;;
16634;SDS011;8431;52.458;9.998;2022-08-19T10:17:01;5.72;;;5.30;;
16634;SDS011;8431;52.458;9.998;2022-08-19T10:19:28;5.25;;;4.95;;
16634;SDS011;8431;52.458;9.998;2022-08-19T10:22:02;5.53;;;5.13;;
16634;SDS011;8431;52.458;9.998;2022-08-19T10:24:30;5.20;;;4.70;;
16634;SDS011;8431;52.458;9.998;2022-08-19T10:26:58;6.00;;;5.50;;
16634;SDS011;8431;52.458;9.998;2022-08-19T10:29:28;5.40;;;5.10;;
16634;SDS011;8431;52.458;9.998;2022-08-19T10:32:01;8.63;;;5.03;;
16634;SDS011;8431;52.458;9.998;2022-08-19T10:34:30;5.95;;;5.53;;
16634;SDS011;8431;52.458;9.998;2022-08-19T10:36:58;6.30;;;5.45;;
16634;SDS011;8431;52.458;9.998;2022-08-19T10:39:26;6.22;;;5.63;;
16634;SDS011;8431;52.458;9.998;2022-08-19T10:41:55;5.45;;;5.05;;
16634;SDS011;8431;52.458;9.998;2022-08-19T10:44:22;5.20;;;4.90;;
16634;SDS011;8431;52.458;9.998;2022-08-19T10:46:50;5.53;;;5.03;;
16634;SDS011;8431;52.458;9.998;2022-08-19T10:49:18;5.07;;;4.75;;
16634;SDS011;8431;52.458;9.998;2022-08-19T10:51:45;4.95;;;4.55;;
16634;SDS011;8431;52.458;9.998;2022-08-19T10:54:30;5.32;;;4.93;;
16634;SDS011;8431;52.458;9.998;2022-08-19T10:57:14;5.00;;;4.63;;
16634;SDS011;8431;52.458;9.998;2022-08-19T10:59:41;5.32;;;4.97;;
16634;SDS011;8431;52.458;9.998;2022-08-19T11:02:10;5.30;;;4.90;;
16634;SDS011;8431;52.458;9.998;2022-08-19T11:04:39;4.65;;;4.35;;
16634;SDS011;8431;52.458;9.998;2022-08-19T11:07:07;4.75;;;4.38;;
16634;SDS011;8431;52.458;9.998;2022-08-19T11:09:37;4.90;;;4.60;;
16634;SDS011;8431;52.458;9.998;2022-08-19T11:12:05;4.47;;;3.90;;
16634;SDS011;8431;52.458;9.998;2022-08-19T11:14:33;5.07;;;4.55;;
16634;SDS011;8431;52.458;9.998;2022-08-19T11:17:00;4.53;;;4.22;;
16634;SDS011;8431;52.458;9.998;2022-08-19T11:19:29;4.32;;;3.97;;
16634;SDS011;8431;52.458;9.998;2022-08-19T11:21:57;5.10;;;4.80;;
16634;SDS011;8431;52.458;9.998;2022-08-19T11:24:27;4.68;;;4.28;;
16634;SDS011;8431;52.458;9.998;2022-08-19T11:26:55;5.18;;;4.78;;
16634;SDS011;8431;52.458;9.998;2022-08-19T11:29:29;4.22;;;4.00;;
16634;SDS011;8431;52.458;9.998;2022-08-19T11:31:57;3.17;;;2.97;;
16634;SDS011;8431;52.458;9.998;2022-08-19T11:34:26;4.35;;;4.15;;
16634;SDS011;8431;52.458;9.998;2022-08-19T11:36:56;4.00;;;3.80;;
16634;SDS011;8431;52.458;9.998;2022-08-19T11:39:25;3.80;;;3.50;;
16634;SDS011;8431;52.458;9.998;2022-08-19T11:41:54;4.93;;;4.32;;
16634;SDS011;8431;52.458;9.998;2022-08-19T11:44:21;4.22;;;3.78;;
16634;SDS011;8431;52.458;9.998;2022-08-19T11:46:48;3.50;;;3.30;;
16634;SDS011;8431;52.458;9.998;2022-08-19T11:49:15;4.72;;;3.75;;
16634;SDS011;8431;52.458;9.998;2022-08-19T11:51:45;3.38;;;3.17;;
16634;SDS011;8431;52.458;9.998;2022-08-19T11:54:16;3.20;;;3.08;;
16634;SDS011;8431;52.458;9.998;2022-08-19T11:56:44;3.38;;;3.17;;
16634;SDS011;8431;52.458;9.998;2022-08-19T11:59:12;3.55;;;3.35;;
16634;SDS011;8431;52.458;9.998;2022-08-19T12:01:39;3.88;;;3.40;;
16634;SDS011;8431;52.458;9.998;2022-08-19T12:04:07;3.30;;;2.97;;
16634;SDS011;8431;52.458;9.998;2022-08-19T12:06:37;3.90;;;3.60;;
16634;SDS011;8431;52.458;9.998;2022-08-19T12:09:05;3.83;;;3.60;;
16634;SDS011;8431;52.458;9.998;2022-08-19T12:11:36;3.63;;;3.20;;
16634;SDS011;8431;52.458;9.998;2022-08-19T12:14:03;3.35;;;3.15;;
16634;SDS011;8431;52.458;9.998;2022-08-19T12:16:32;3.45;;;3.25;;
16634;SDS011;8431;52.458;9.998;2022-08-19T12:18:59;3.20;;;3.00;;
16634;SDS011;8431;52.458;9.998;2022-08-19T12:21:29;3.97;;;3.53;;
16634;SDS011;8431;52.458;9.998;2022-08-19T12:23:58;3.10;;;2.90;;
16634;SDS011;8431;52.458;9.998;2022-08-19T12:26:26;3.60;;;2.90;;
16634;SDS011;8431;52.458;9.998;2022-08-19T12:28:57;3.22;;;3.03;;
16634;SDS011;8431;52.458;9.998;2022-08-19T12:31:25;3.17;;;2.95;;
16634;SDS011;8431;52.458;9.998;2022-08-19T12:33:53;2.72;;;2.53;;
16634;SDS011;8431;52.458;9.998;2022-08-19T12:36:20;3.00;;;2.65;;
16634;SDS011;8431;52.458;9.998;2022-08-19T12:38:48;3.72;;;2.85;;
16634;SDS011;8431;52.458;9.998;2022-08-19T12:41:16;2.67;;;2.58;;
16634;SDS011;8431;52.458;9.998;2022-08-19T12:43:44;3.15;;;2.88;;
16634;SDS011;8431;52.458;9.998;2022-08-19T12:46:14;2.88;;;2.70;;
16634;SDS011;8431;52.458;9.998;2022-08-19T12:48:41;5.55;;;3.05;;
16634;SDS011;8431;52.458;9.998;2022-08-19T12:51:10;2.70;;;2.50;;
16634;SDS011;8431;52.458;9.998;2022-08-19T12:53:39;4.05;;;2.75;;
16634;SDS011;8431;52.458;9.998;2022-08-19T12:56:07;2.65;;;2.55;;
16634;SDS011;8431;52.458;9.998;2022-08-19T12:58:35;2.50;;;2.40;;
16634;SDS011;8431;52.458;9.998;2022-08-19T13:01:06;2.53;;;2.42;;
16634;SDS011;8431;52.458;9.998;2022-08-19T13:03:35;2.78;;;2.58;;
16634;SDS011;8431;52.458;9.998;2022-08-19T13:06:03;2.45;;;2.30;;
16634;SDS011;8431;52.458;9.998;2022-08-19T13:08:30;2.40;;;2.30;;
16634;SDS011;8431;52.458;9.998;2022-08-19T13:10:57;2.63;;;2.53;;
16634;SDS011;8431;52.458;9.998;2022-08-19T13:13:24;2.35;;;2.25;;
16634;SDS011;8431;52.458;9.998;2022-08-19T13:15:52;5.10;;;2.78;;
16634;SDS011;8431;52.458;9.998;2022-08-19T13:18:27;3.05;;;2.85;;
16634;SDS011;8431;52.458;9.998;2022-08-19T13:20:55;2.90;;;2.75;;
16634;SDS011;8431;52.458;9.998;2022-08-19T13:23:22;3.85;;;3.28;;
16634;SDS011;8431;52.458;9.998;2022-08-19T13:25:55;2.97;;;2.85;;
16634;SDS011;8431;52.458;9.998;2022-08-19T13:28:23;2.85;;;2.75;;
16634;SDS011;8431;52.458;9.998;2022-08-19T13:30:50;3.00;;;2.75;;
16634;SDS011;8431;52.458;9.998;2022-08-19T13:33:35;2.95;;;2.85;;
16634;SDS011;8431;52.458;9.998;2022-08-19T13:36:04;2.95;;;2.75;;
16634;SDS011;8431;52.458;9.998;2022-08-19T13:38:32;3.03;;;2.83;;
16634;SDS011;8431;52.458;9.998;2022-08-19T13:41:04;2.95;;;2.72;;
16634;SDS011;8431;52.458;9.998;2022-08-19T13:43:32;2.88;;;2.65;;
16634;SDS011;8431;52.458;9.998;2022-08-19T13:45:59;2.88;;;2.78;;
16634;SDS011;8431;52.458;9.998;2022-08-19T13:48:34;2.80;;;2.70;;
16634;SDS011;8431;52.458;9.998;2022-08-19T13:51:01;3.20;;;3.10;;
16634;SDS011;8431;52.458;9.998;2022-08-19T13:53:34;2.72;;;2.53;;
16634;SDS011;8431;52.458;9.998;2022-08-19T13:56:04;2.97;;;2.75;;
16634;SDS011;8431;52.458;9.998;2022-08-19T13:58:32;2.65;;;2.55;;
16634;SDS011;8431;52.458;9.998;2022-08-19T14:00:59;3.40;;;2.75;;
16634;SDS011;8431;52.458;9.998;2022-08-19T14:03:26;3.08;;;2.88;;
16634;SDS011;8431;52.458;9.998;2022-08-19T14:05:53;3.10;;;2.90;;
16634;SDS011;8431;52.458;9.998;2022-08-19T14:08:21;2.95;;;2.75;;
16634;SDS011;8431;52.458;9.998;2022-08-19T14:10:49;3.17;;;2.97;;
16634;SDS011;8431;52.458;9.998;2022-08-19T14:13:17;2.85;;;2.75;;
16634;SDS011;8431;52.458;9.998;2022-08-19T14:15:47;3.28;;;3.10;;
16634;SDS011;8431;52.458;9.998;2022-08-19T14:18:15;3.00;;;2.90;;
16634;SDS011;8431;52.458;9.998;2022-08-19T14:20:43;3.00;;;2.80;;
16634;SDS011;8431;52.458;9.998;2022-08-19T14:23:11;7.00;;;3.10;;
16634;SDS011;8431;52.458;9.998;2022-08-19T14:25:40;2.70;;;2.50;;
16634;SDS011;8431;52.458;9.998;2022-08-19T14:28:07;2.70;;;2.60;;
16634;SDS011;8431;52.458;9.998;2022-08-19T14:30:35;3.38;;;2.80;;
16634;SDS011;8431;52.458;9.998;2022-08-19T14:33:03;2.83;;;2.38;;
16634;SDS011;8431;52.458;9.998;2022-08-19T14:35:32;2.88;;;2.78;;
16634;SDS011;8431;52.458;9.998;2022-08-19T14:37:59;2.70;;;2.50;;
16634;SDS011;8431;52.458;9.998;2022-08-19T14:40:28;3.28;;;2.97;;
16634;SDS011;8431;52.458;9.998;2022-08-19T14:42:58;2.72;;;2.60;;
16634;SDS011;8431;52.458;9.998;2022-08-19T14:45:29;2.08;;;1.98;;
16634;SDS011;8431;52.458;9.998;2022-08-19T14:47:57;4.15;;;2.35;;
16634;SDS011;8431;52.458;9.998;2022-08-19T14:50:25;2.40;;;2.30;;
16634;SDS011;8431;52.458;9.998;2022-08-19T14:52:57;2.38;;;2.28;;
16634;SDS011;8431;52.458;9.998;2022-08-19T14:55:26;2.40;;;2.28;;
16634;SDS011;8431;52.458;9.998;2022-08-19T14:57:53;2.17;;;2.08;;
16634;SDS011;8431;52.458;9.998;2022-08-19T15:00:22;2.33;;;2.20;;
16634;SDS011;8431;52.458;9.998;2022-08-19T15:02:49;2.65;;;2.25;;
16634;SDS011;8431;52.458;9.998;2022-08-19T15:05:16;2.10;;;2.00;;
16634;SDS011;8431;52.458;9.998;2022-08-19T15:07:44;4.75;;;2.20;;